Time;durP1;ratioP1;P1;durP2;ratioP2;P2;SDS_P1;SDS_P2;PMS_P1;PMS_P2;Temp;Humidity;BMP_temperature;BMP_pressure;BME280_temperature;BME280_humidity;BME280_pressure;Samples;Min_cycle;Max_cycle;Signal;HPM_P1;HPM_P2
2022/03/09 00:04:00;;;;;;;1.95;1.00;;;0.00;99.90;;;;;;5983906;23;20436;-85
2022/03/09 00:07:29;;;;;;;;;;;;;;;;;;;;;
2022/03/09 00:14:46;;;;;;;1.63;0.90;;;0.10;99.90;;;;;;6008328;23;20064;-85
2022/03/09 00:17:23;;;;;;;1.55;0.85;;;-0.10;99.90;;;;;;6004549;23;20031;-85
2022/03/09 00:23:24;;;;;;;;;;;;;;;;;;;;;
2022/03/09 00:33:35;;;;;;;2.85;1.10;;;-0.30;99.90;;;;;;6338065;22;20030;-85
2022/03/09 00:36:28;;;;;;;2.75;1.13;;;-0.30;99.90;;;;;;6271436;22;20023;-84
2022/03/09 00:39:09;;;;;;;2.70;1.00;;;0.10;99.90;;;;;;6336789;22;20018;-84
2022/03/09 00:41:58;;;;;;;2.25;1.00;;;-0.60;99.90;;;;;;6337748;22;20341;-85
2022/03/09 00:44:41;;;;;;;3.83;1.27;;;-0.50;99.90;;;;;;6310272;22;20022;-84
2022/03/09 00:47:30;;;;;;;2.53;1.90;;;-0.90;99.90;;;;;;6338372;22;20361;-85
2022/03/09 00:50:09;;;;;;;2.15;1.00;;;-0.90;99.90;;;;;;6305903;22;20007;-85
2022/03/09 00:52:45;;;;;;;1.38;1.00;;;-0.60;99.90;;;;;;6338489;22;20073;-84
2022/03/09 01:06:23;;;;;;;1.02;0.70;;;-0.50;99.90;;;;;;6338154;22;20018;-84
2022/03/09 01:09:10;;;;;;;2.00;0.80;;;0.90;99.90;;;;;;6309616;22;20015;-85
2022/03/09 01:15:42;;;;;;;2.03;1.02;;;-0.50;99.90;;;;;;6247274;23;20077;-84
2022/03/09 01:18:20;;;;;;;1.95;0.80;;;-0.50;99.90;;;;;;6221537;23;20087;-85
2022/03/09 01:21:14;;;;;;;1.50;0.80;;;-1.30;99.90;;;;;;6248580;22;20042;-85
2022/03/09 01:24:27;;;;;;;3.13;1.00;;;0.90;99.90;;;;;;6247379;23;20047;-85
2022/03/09 01:34:27;;;;;;;2.35;1.10;;;-0.40;99.90;;;;;;6245004;23;20035;-85
2022/03/09 01:37:21;;;;;;;1.92;0.80;;;-0.60;99.90;;;;;;6217279;23;20438;-85
2022/03/09 01:40:04;;;;;;;2.70;1.20;;;0.30;99.90;;;;;;6242826;23;20412;-84
2022/03/09 01:43:02;;;;;;;;;;;;;;;;;;;;;
2022/03/09 01:48:40;;;;;;;1.90;1.02;;;-1.50;99.90;;;;;;6328558;22;20356;-85
2022/03/09 01:51:46;;;;;;;2.25;0.95;;;-0.80;99.90;;;;;;6241863;22;20012;-85
2022/03/09 01:54:56;;;;;;;1.75;1.00;;;0.60;99.90;;;;;;6106694;23;20025;-85
2022/03/09 01:57:44;;;;;;;2.55;1.00;;;-0.80;99.90;;;;;;6156597;23;20017;-85
2022/03/09 02:00:23;;;;;;;3.10;1.33;;;-0.30;99.90;;;;;;6154684;23;20017;-84
2022/03/09 02:03:39;;;;;;;3.83;1.42;;;-0.90;99.90;;;;;;6180855;23;20511;-84
2022/03/09 02:06:41;;;;;;;3.35;1.30;;;-0.90;99.90;;;;;;6180614;23;20111;-84
2022/03/09 02:16:32;;;;;;;4.50;1.42;;;-1.00;99.90;;;;;;6181529;23;20016;-85
2022/03/09 02:19:56;;;;;;;5.35;1.95;;;-0.50;99.90;;;;;;6160059;23;20029;-84
2022/03/09 02:33:50;;;;;;;3.17;1.30;;;-1.20;99.90;;;;;;6007225;23;20062;-84
2022/03/09 02:36:20;;;;;;;2.15;0.90;;;-1.20;99.90;;;;;;5984774;23;20023;-84
2022/03/09 02:39:03;;;;;;;4.38;1.30;;;-1.20;99.90;;;;;;5985681;23;20030;-84
2022/03/09 02:41:39;;;;;;;2.65;1.20;;;-1.20;99.90;;;;;;5985217;23;20329;-84
2022/03/09 02:47:09;;;;;;;2.60;1.10;;;-1.30;99.90;;;;;;6001349;23;20023;-85
2022/03/09 02:50:02;;;;;;;3.17;1.38;;;-1.50;99.90;;;;;;6013186;23;20502;-85
2022/03/09 02:53:10;;;;;;;3.97;1.38;;;-1.30;99.90;;;;;;5994792;23;20066;-85
2022/03/09 03:04:03;;;;;;;;;;;;;;;;;;;;;
2022/03/09 03:07:44;;;;;;;2.60;1.15;;;-1.20;99.90;;;;;;6184375;23;20016;-85
2022/03/09 03:10:33;;;;;;;2.28;1.13;;;-1.50;99.90;;;;;;6070070;23;20019;-84
2022/03/09 03:13:05;;;;;;;4.35;1.40;;;-0.80;99.90;;;;;;6065219;23;20019;-84
2022/03/09 03:15:39;;;;;;;2.55;1.33;;;;;;;;;;6047231;23;20094;-84
2022/03/09 03:18:10;;;;;;;3.60;1.30;;;-1.30;99.90;;;;;;6094140;23;20063;-84
2022/03/09 03:20:55;;;;;;;3.08;1.35;;;-1.40;99.90;;;;;;6070364;23;20027;-84
2022/03/09 03:23:35;;;;;;;2.92;1.52;;;-0.70;99.90;;;;;;6114124;23;20459;-84
2022/03/09 03:32:10;;;;;;;3.25;1.33;;;-1.40;99.90;;;;;;6098927;23;20033;-85
2022/03/09 03:35:27;;;;;;;3.92;1.52;;;-1.50;99.90;;;;;;6097705;23;20381;-85
2022/03/09 03:38:14;;;;;;;4.82;1.58;;;-0.70;99.90;;;;;;6024189;23;20125;-85
2022/03/09 03:45:10;;;;;;;2.72;1.30;;;-1.60;99.90;;;;;;6062080;23;20526;-84
2022/03/09 03:48:14;;;;;;;3.08;1.50;;;-1.70;99.90;;;;;;6065629;23;20022;-85
2022/03/09 03:54:28;;;;;;;2.97;1.65;;;-0.80;99.90;;;;;;6317831;22;20102;-85
2022/03/09 04:09:14;;;;;;;2.22;1.05;;;-1.60;99.90;;;;;;6095854;23;20389;-85
2022/03/09 04:16:02;;;;;;;3.70;1.60;;;-1.40;99.90;;;;;;6059648;23;20023;-85
2022/03/09 04:32:32;;;;;;;;;;;;;;;;;;;;;
2022/03/09 04:47:09;;;;;;;2.70;1.30;;;-1.60;99.90;;;;;;6205767;23;20016;-85
2022/03/09 04:50:41;;;;;;;;;;;;;;;;;;;;;
2022/03/09 04:53:59;;;;;;;3.65;1.65;;;-1.70;99.90;;;;;;6035554;23;20145;-84
2022/03/09 05:17:10;;;;;;;5.00;1.95;;;-2.50;99.90;;;;;;6122627;23;20551;-85
2022/03/09 05:20:11;;;;;;;3.83;1.70;;;-1.90;99.90;;;;;;6035716;23;20519;-84
2022/03/09 05:23:12;;;;;;;;;;;;;;;;;;;;;
2022/03/09 05:36:47;;;;;;;3.30;1.42;;;-1.90;99.90;;;;;;6036158;23;20104;-84
2022/03/09 05:39:54;;;;;;;3.78;1.50;;;-2.90;99.90;;;;;;6026231;23;20063;-84
2022/03/09 05:43:06;;;;;;;3.75;1.63;;;-1.60;99.90;;;;;;6035853;23;20423;-84
2022/03/09 05:46:07;;;;;;;4.28;1.85;;;-1.90;99.90;;;;;;6038615;23;20018;-84
2022/03/09 05:48:59;;;;;;;3.60;1.95;;;-2.10;99.90;;;;;;6006454;23;20028;-84
2022/03/09 05:54:49;;;;;;;6.95;2.40;;;-1.60;99.90;;;;;;5928122;24;20123;-84
2022/03/09 06:05:34;;;;;;;3.88;1.75;;;-2.00;99.90;;;;;;6011241;23;20121;-83
2022/03/09 06:19:52;;;;;;;4.60;2.13;;;-2.00;99.90;;;;;;5898699;24;20029;-83
2022/03/09 06:23:02;;;;;;;4.60;2.00;;;-2.20;99.90;;;;;;5843917;24;20010;-84
2022/03/09 06:25:54;;;;;;;4.78;1.98;;;-2.80;99.90;;;;;;5834329;24;20053;-83
2022/03/09 06:35:47;;;;;;;6.07;2.40;;;-1.90;99.90;;;;;;5898176;24;20468;-84
2022/03/09 06:38:57;;;;;;;4.00;1.90;;;-2.00;99.90;;;;;;6045942;22;20093;-83
2022/03/09 06:41:39;;;;;;;3.90;1.80;;;-1.70;99.90;;;;;;6311824;22;20094;-84
2022/03/09 06:44:35;;;;;;;5.35;2.22;;;-0.80;99.90;;;;;;6338818;22;20449;-83
2022/03/09 06:47:39;;;;;;;3.72;2.00;;;-2.80;99.90;;;;;;6326178;22;20045;-84
2022/03/09 06:50:26;;;;;;;5.20;2.45;;;-2.80;99.90;;;;;;6242401;23;20055;-85
2022/03/09 06:53:31;;;;;;;6.15;2.33;;;-2.00;99.90;;;;;;6217127;23;20020;-85
2022/03/09 06:56:53;;;;;;;;;;;;;;;;;;;;;
2022/03/09 07:03:05;;;;;;;4.45;1.63;;;-1.80;99.90;;;;;;6008076;23;20400;-85
2022/03/09 07:06:38;;;;;;;3.72;1.88;;;-1.60;99.90;;;;;;5989002;23;20343;-85
2022/03/09 07:17:10;;;;;;;4.93;2.28;;;-1.10;99.90;;;;;;5980743;24;20064;-85
2022/03/09 07:23:33;;;;;;;6.90;2.88;;;-1.10;99.90;;;;;;5118445;28;20054;-80
2022/03/09 07:26:04;;;;;;;5.28;2.58;;;-0.40;99.90;;;;;;5124978;28;20040;-86
2022/03/09 07:28:30;;;;;;;4.88;1.98;;;-0.80;99.90;;;;;;5129348;28;20551;-83
2022/03/09 07:31:01;;;;;;;5.57;2.55;;;-1.40;99.90;;;;;;5111453;28;20127;-85
2022/03/09 07:33:56;;;;;;;3.40;2.35;;;-0.40;99.90;;;;;;5100355;28;20040;-87
2022/03/09 07:36:25;;;;;;;5.13;2.28;;;-0.30;99.90;;;;;;5100102;28;20479;-84
2022/03/09 07:38:50;;;;;;;4.22;1.95;;;-0.20;99.90;;;;;;5124737;28;20081;-83
2022/03/09 07:41:16;;;;;;;5.75;1.98;;;0.80;99.90;;;;;;5107027;28;20039;-83
2022/03/09 07:43:42;;;;;;;3.47;1.92;;;0.00;99.90;;;;;;5128451;28;20035;-83
2022/03/09 07:46:09;;;;;;;4.72;1.77;;;0.80;99.90;;;;;;5094666;28;20032;-83
2022/03/09 07:48:35;;;;;;;6.18;1.88;;;0.30;99.90;;;;;;5107791;28;20044;-84
2022/03/09 07:51:01;;;;;;;3.78;1.92;;;1.20;99.90;;;;;;5094613;28;20047;-85
2022/03/09 07:53:50;;;;;;;5.07;2.05;;;0.50;99.90;;;;;;5104093;28;20441;-85
2022/03/09 07:56:15;;;;;;;4.78;2.67;;;2.40;99.90;;;;;;5102918;28;20043;-83
2022/03/09 07:58:41;;;;;;;6.13;2.50;;;0.80;99.90;;;;;;5121302;28;20031;-84
2022/03/09 08:01:07;;;;;;;4.10;2.00;;;0.90;99.90;;;;;;5110388;28;20430;-83
2022/03/09 08:03:33;;;;;;;3.72;1.80;;;1.60;99.90;;;;;;5111292;28;20043;-83
2022/03/09 08:05:59;;;;;;;4.43;1.77;;;1.90;99.90;;;;;;5092795;28;20502;-84
2022/03/09 08:08:25;;;;;;;3.28;1.73;;;1.30;99.90;;;;;;5106620;28;20477;-83
2022/03/09 08:10:51;;;;;;;4.35;1.95;;;1.40;99.90;;;;;;5090850;28;20100;-83
2022/03/09 08:13:17;;;;;;;3.67;1.80;;;2.40;99.90;;;;;;5110080;28;20055;-84
2022/03/09 08:15:43;;;;;;;5.65;2.70;;;1.60;99.90;;;;;;5109889;28;20058;-83
2022/03/09 08:18:12;;;;;;;5.40;2.53;;;2.90;99.90;;;;;;5120574;27;20042;-86
2022/03/09 08:20:38;;;;;;;4.72;2.53;;;1.50;99.90;;;;;;5099725;28;20573;-84
2022/03/09 08:23:08;;;;;;;5.75;2.40;;;2.20;99.90;;;;;;5117197;28;20122;-85
2022/03/09 08:25:44;;;;;;;5.55;2.63;;;2.90;99.90;;;;;;5100547;28;20074;-85
2022/03/09 08:28:13;;;;;;;5.88;2.83;;;2.50;99.90;;;;;;5107457;28;20066;-87
2022/03/09 08:30:59;;;;;;;6.80;3.53;;;3.10;99.90;;;;;;5114729;28;20043;-84
2022/03/09 08:33:24;;;;;;;7.43;3.25;;;2.90;99.90;;;;;;5092058;28;20445;-84
2022/03/09 08:35:52;;;;;;;6.28;3.22;;;4.10;99.90;;;;;;5104431;28;20105;-83
2022/03/09 08:46:11;;;;;;;7.60;3.83;;;3.70;99.90;;;;;;5063312;28;20106;-85
2022/03/09 08:48:48;;;;;;;7.28;3.22;;;3.90;99.90;;;;;;5037964;28;20120;-85
2022/03/09 08:51:21;;;;;;;6.68;3.70;;;4.10;99.90;;;;;;5037447;28;20057;-85
2022/03/09 08:53:53;;;;;;;6.68;3.10;;;4.30;99.90;;;;;;5020505;28;20061;-85
2022/03/09 08:56:32;;;;;;;8.23;3.15;;;4.50;99.90;;;;;;5054939;28;20537;-85
2022/03/09 08:59:23;;;;;;;6.97;3.25;;;5.00;99.90;;;;;;5053279;28;20045;-86
2022/03/09 09:02:15;;;;;;;5.53;2.85;;;4.70;99.90;;;;;;5037562;28;20098;-86
2022/03/09 09:05:14;;;;;;;5.90;3.45;;;5.40;99.90;;;;;;5037700;28;20045;-86
2022/03/09 09:07:42;;;;;;;5.05;3.22;;;5.00;99.90;;;;;;5054664;28;20055;-85
2022/03/09 09:10:33;;;;;;;5.55;3.10;;;6.30;99.90;;;;;;5021321;28;20041;-86
2022/03/09 09:16:58;;;;;;;7.72;4.40;;;5.50;99.90;;;;;;5055090;28;20098;-85
2022/03/09 09:20:10;;;;;;;7.65;3.60;;;5.70;99.90;;;;;;5035313;28;20041;-85
2022/03/09 09:22:47;;;;;;;8.88;4.40;;;5.80;99.90;;;;;;5038509;28;20060;-85
2022/03/09 09:25:38;;;;;;;4.55;3.05;;;5.90;99.90;;;;;;5033687;28;20081;-86
2022/03/09 09:28:11;;;;;;;6.07;3.40;;;6.10;99.90;;;;;;5012675;28;20049;-85
2022/03/09 09:31:09;;;;;;;5.57;2.85;;;6.70;99.90;;;;;;4995579;28;20601;-86
2022/03/09 09:34:00;;;;;;;6.85;3.28;;;6.50;99.90;;;;;;4954159;28;20167;-85
2022/03/09 09:37:12;;;;;;;6.28;3.92;;;6.50;99.90;;;;;;4953910;29;20563;-85
2022/03/09 09:39:49;;;;;;;6.93;3.28;;;7.20;99.90;;;;;;4937885;29;20051;-85
2022/03/09 09:46:43;;;;;;;5.28;3.30;;;7.00;99.90;;;;;;4954010;29;20308;-86
2022/03/09 09:49:37;;;;;;;5.28;2.90;;;8.10;99.90;;;;;;4953964;29;20048;-85
2022/03/09 09:53:00;;;;;;;8.18;3.22;;;7.40;99.90;;;;;;4953880;29;20058;-85
2022/03/09 09:56:13;;;;;;;7.03;3.50;;;7.70;99.90;;;;;;4917866;29;20133;-85
2022/03/09 10:06:41;;;;;;;6.68;3.70;;;8.10;99.90;;;;;;4915552;29;20060;-86
2022/03/09 10:09:36;;;;;;;7.47;4.75;;;8.20;99.90;;;;;;4897335;29;20442;-86
2022/03/09 10:16:44;;;;;;;5.03;2.97;;;8.50;99.90;;;;;;4915124;29;20127;-85
2022/03/09 10:19:51;;;;;;;;;;;;;;;;;;;;;
2022/03/09 10:22:46;;;;;;;6.00;3.00;;;8.90;99.90;;;;;;4864040;29;20081;-86
2022/03/09 10:36:18;;;;;;;6.82;3.70;;;9.40;97.30;;;;;;4896526;29;20540;-85
2022/03/09 10:39:19;;;;;;;5.38;3.20;;;9.70;99.30;;;;;;4826096;29;20077;-86
2022/03/09 10:46:35;;;;;;;5.85;3.35;;;10.30;96.90;;;;;;4808123;29;20105;-86
2022/03/09 10:49:01;;;;;;;6.10;3.63;;;10.20;97.20;;;;;;4848640;29;20057;-86
2022/03/09 10:51:39;;;;;;;5.63;3.20;;;10.50;96.80;;;;;;4861576;29;20069;-86
2022/03/09 10:54:25;;;;;;;4.63;3.08;;;10.40;97.50;;;;;;4845928;29;20045;-86
2022/03/09 10:57:31;;;;;;;5.28;3.05;;;10.60;98.70;;;;;;4847130;29;20068;-85
2022/03/09 11:00:05;;;;;;;6.13;3.20;;;10.70;93.90;;;;;;4898502;29;20056;-86
2022/03/09 11:02:51;;;;;;;5.68;3.25;;;10.80;93.80;;;;;;4915327;29;20056;-86
2022/03/09 11:05:58;;;;;;;6.78;3.47;;;10.80;93.50;;;;;;4909289;29;20119;-86
2022/03/09 11:08:52;;;;;;;5.65;3.33;;;11.10;94.00;;;;;;4952840;29;20058;-85
2022/03/09 11:11:23;;;;;;;6.45;3.50;;;11.10;93.80;;;;;;4934971;29;20149;-86
2022/03/09 11:13:55;;;;;;;7.93;3.38;;;11.20;93.70;;;;;;4954029;28;20094;-86
2022/03/09 11:16:41;;;;;;;4.78;3.20;;;11.30;94.40;;;;;;5000202;28;20417;-86
2022/03/09 11:19:30;;;;;;;6.47;3.45;;;11.10;92.40;;;;;;5030995;28;20567;-87
2022/03/09 11:24:39;;;;;;;5.22;3.05;;;11.60;92.10;;;;;;5159557;22;20057;-86
2022/03/09 11:32:06;;;;;;;6.47;3.85;;;11.70;92.90;;;;;;5002016;28;20101;-85
2022/03/09 11:35:34;;;;;;;6.70;4.60;;;11.70;85.30;;;;;;4985975;28;20089;-84
2022/03/09 11:38:32;;;;;;;6.68;3.83;;;11.70;85.10;;;;;;4971690;28;20081;-85
2022/03/09 11:41:41;;;;;;;5.63;3.75;;;11.80;85.50;;;;;;4988226;28;20475;-86
2022/03/09 11:44:24;;;;;;;7.07;3.95;;;11.80;87.90;;;;;;4997832;28;20573;-85
2022/03/09 11:47:04;;;;;;;6.40;3.75;;;11.80;88.50;;;;;;4984698;28;20046;-85
2022/03/09 11:49:58;;;;;;;7.70;4.45;;;11.90;87.90;;;;;;4986769;28;20406;-84
2022/03/09 11:52:28;;;;;;;7.35;3.97;;;12.20;83.50;;;;;;4975185;28;20089;-84
2022/03/09 11:54:56;;;;;;;5.20;3.13;;;12.10;84.20;;;;;;5000894;28;20049;-84
2022/03/09 11:57:24;;;;;;;5.22;3.15;;;12.10;83.10;;;;;;4996549;28;20034;-83
2022/03/09 11:59:58;;;;;;;5.53;3.15;;;12.10;84.40;;;;;;4992032;28;20574;-84
2022/03/09 12:02:39;;;;;;;4.13;2.53;;;12.20;83.20;;;;;;5003508;28;20045;-83
2022/03/09 12:05:07;;;;;;;6.90;3.58;;;12.40;84.10;;;;;;5000184;28;20834;-84
2022/03/09 12:07:37;;;;;;;5.53;2.92;;;12.50;85.50;;;;;;5019566;28;20137;-84
2022/03/09 12:10:09;;;;;;;6.03;3.75;;;12.60;79.20;;;;;;5003477;28;20073;-84
2022/03/09 12:19:05;;;;;;;5.63;2.83;;;12.70;73.70;;;;;;5051552;22;20128;-84
2022/03/09 12:22:00;;;;;;;8.07;4.05;;;13.00;76.80;;;;;;5037024;28;20516;-85
2022/03/09 12:24:31;;;;;;;5.40;3.60;;;12.90;73.70;;;;;;5029902;28;20410;-83
2022/03/09 12:27:00;;;;;;;5.82;3.85;;;13.00;72.10;;;;;;5029375;28;20450;-83
2022/03/09 12:29:28;;;;;;;5.50;3.45;;;13.20;74.80;;;;;;5039069;28;20044;-83
2022/03/09 12:32:46;;;;;;;8.13;3.97;;;13.10;73.90;;;;;;5013061;28;20519;-84
2022/03/09 12:35:12;;;;;;;9.00;3.63;;;13.00;68.80;;;;;;5025587;28;20049;-83
2022/03/09 12:38:03;;;;;;;6.80;3.63;;;13.40;67.70;;;;;;5027651;28;20049;-83
2022/03/09 12:40:50;;;;;;;5.45;3.17;;;13.20;65.80;;;;;;5032211;28;20045;-84
2022/03/09 12:43:18;;;;;;;5.75;3.28;;;13.50;69.40;;;;;;5036659;28;20056;-83
2022/03/09 12:45:55;;;;;;;5.38;3.08;;;13.50;66.30;;;;;;5044880;28;20040;-83
2022/03/09 12:48:22;;;;;;;6.07;3.70;;;13.60;64.00;;;;;;5034634;28;20048;-84
2022/03/09 12:50:49;;;;;;;4.60;2.97;;;13.60;62.50;;;;;;5008979;28;20080;-84
2022/03/09 12:53:22;;;;;;;6.57;3.78;;;13.70;61.80;;;;;;5026513;28;20057;-84
2022/03/09 12:55:50;;;;;;;5.50;3.25;;;13.70;62.40;;;;;;5043577;28;20167;-84
2022/03/09 12:58:22;;;;;;;6.28;2.97;;;13.70;64.40;;;;;;5032840;28;20076;-84
2022/03/09 13:01:03;;;;;;;5.97;3.10;;;13.90;62.50;;;;;;5029889;28;20041;-83
2022/03/09 13:03:35;;;;;;;6.13;3.70;;;13.90;61.20;;;;;;5044857;28;20127;-83
2022/03/09 13:06:21;;;;;;;5.25;3.80;;;14.00;64.10;;;;;;5043115;28;20370;-83
2022/03/09 13:08:49;;;;;;;6.75;2.90;;;14.00;60.90;;;;;;5044813;28;20079;-83
2022/03/09 13:11:44;;;;;;;6.18;3.38;;;14.20;62.40;;;;;;5027184;28;20065;-85
2022/03/09 13:14:16;;;;;;;6.13;3.75;;;14.10;59.50;;;;;;5025423;28;20052;-83
2022/03/09 13:16:42;;;;;;;6.18;3.13;;;14.10;60.30;;;;;;5016126;28;20099;-83
2022/03/09 13:19:08;;;;;;;6.00;3.20;;;14.20;62.50;;;;;;5000221;28;20056;-84
2022/03/09 13:21:34;;;;;;;5.90;3.72;;;14.30;62.80;;;;;;5016760;28;20508;-84
2022/03/09 13:24:05;;;;;;;7.63;4.05;;;14.30;60.70;;;;;;5021729;28;20041;-84
2022/03/09 13:26:39;;;;;;;5.53;3.20;;;14.20;58.60;;;;;;5036871;28;20076;-84
2022/03/09 13:29:14;;;;;;;4.95;2.92;;;14.30;58.70;;;;;;5035930;28;20509;-84
2022/03/09 13:32:02;;;;;;;5.82;3.05;;;14.30;60.40;;;;;;5054506;28;20573;-84
2022/03/09 13:34:34;;;;;;;6.18;3.50;;;14.40;61.40;;;;;;5019465;28;20059;-83
2022/03/09 13:37:04;;;;;;;6.25;3.63;;;14.20;56.80;;;;;;5054526;28;20041;-84
2022/03/09 13:39:41;;;;;;;6.57;3.25;;;14.30;57.20;;;;;;5053808;28;20049;-84
2022/03/09 13:42:13;;;;;;;5.60;3.33;;;14.30;59.40;;;;;;5053448;28;20045;-84
2022/03/09 13:45:07;;;;;;;6.65;3.22;;;14.40;59.30;;;;;;5053557;28;20033;-86
2022/03/09 13:47:55;;;;;;;5.80;3.70;;;14.40;58.20;;;;;;5036013;28;20451;-86
2022/03/09 13:51:01;;;;;;;5.22;3.33;;;14.30;57.60;;;;;;5054095;28;20041;-85
2022/03/09 13:54:08;;;;;;;6.32;3.15;;;14.30;58.30;;;;;;5053986;28;20397;-86
2022/03/09 13:57:04;;;;;;;7.18;3.97;;;14.30;56.60;;;;;;5036619;28;20037;-87
2022/03/09 14:03:53;;;;;;;5.20;3.20;;;13.90;55.50;;;;;;4968078;28;20055;-86
2022/03/09 14:06:22;;;;;;;6.05;3.65;;;13.90;56.50;;;;;;4972628;28;20051;-84
2022/03/09 14:09:12;;;;;;;6.57;3.90;;;14.00;56.60;;;;;;4940547;28;20047;-86
2022/03/09 14:11:44;;;;;;;4.97;3.10;;;14.10;55.80;;;;;;4956893;28;20055;-85
2022/03/09 14:14:24;;;;;;;6.90;4.00;;;14.10;59.20;;;;;;4955753;28;20058;-85
2022/03/09 14:16:55;;;;;;;5.05;3.13;;;14.00;57.00;;;;;;4956282;28;20046;-85
2022/03/09 14:19:29;;;;;;;6.03;3.35;;;14.00;56.50;;;;;;4956084;28;20057;-86
2022/03/09 14:22:21;;;;;;;6.80;3.67;;;14.00;56.30;;;;;;4956843;28;20054;-86
2022/03/09 14:24:58;;;;;;;6.88;3.40;;;14.00;57.80;;;;;;4955672;28;20059;-86
2022/03/09 14:27:27;;;;;;;6.25;3.45;;;14.00;56.80;;;;;;4956999;28;20057;-86
2022/03/09 14:30:07;;;;;;;5.60;3.53;;;13.90;58.20;;;;;;4956298;28;20050;-86
2022/03/09 14:32:39;;;;;;;5.30;3.42;;;14.00;59.10;;;;;;4939079;28;20110;-85
2022/03/09 14:35:18;;;;;;;7.25;4.53;;;13.90;57.60;;;;;;4956673;28;20042;-85
2022/03/09 14:37:53;;;;;;;6.82;3.20;;;13.90;57.60;;;;;;4956729;28;20586;-86
2022/03/09 14:40:30;;;;;;;6.32;3.83;;;13.80;55.50;;;;;;5013363;28;20045;-85
2022/03/09 14:43:06;;;;;;;5.68;3.70;;;13.40;55.70;;;;;;5013470;28;20037;-86
2022/03/09 14:45:49;;;;;;;7.72;3.83;;;13.30;56.60;;;;;;5012011;28;20054;-86
2022/03/09 14:48:26;;;;;;;5.53;3.40;;;13.10;58.30;;;;;;4979944;28;20042;-84
2022/03/09 14:50:58;;;;;;;6.03;3.13;;;12.90;57.20;;;;;;5012144;28;20046;-85
2022/03/09 14:53:29;;;;;;;6.40;4.00;;;13.30;59.90;;;;;;5013339;28;20572;-84
2022/03/09 14:55:55;;;;;;;4.80;3.28;;;12.70;60.00;;;;;;5012162;28;20085;-85
2022/03/09 14:58:22;;;;;;;5.00;3.00;;;12.50;58.90;;;;;;5011984;28;20034;-84
2022/03/09 15:00:51;;;;;;;3.88;2.40;;;12.50;59.40;;;;;;4979129;28;20042;-85
2022/03/09 15:03:18;;;;;;;5.47;3.15;;;12.50;60.30;;;;;;4995290;28;20054;-85
2022/03/09 15:06:08;;;;;;;4.68;2.78;;;12.40;61.20;;;;;;5012539;28;20041;-86
2022/03/09 15:11:17;;;;;;;7.32;4.05;;;12.30;60.90;;;;;;5028954;23;20049;-83
2022/03/09 15:17:31;;;;;;;6.78;3.20;;;12.10;60.40;;;;;;5001612;28;20041;-82
2022/03/09 15:20:02;;;;;;;6.38;3.58;;;12.00;60.10;;;;;;4965147;28;20137;-81
2022/03/09 15:22:29;;;;;;;5.03;2.78;;;12.00;61.60;;;;;;5004079;28;20045;-82
2022/03/09 15:25:04;;;;;;;4.82;2.78;;;12.00;62.00;;;;;;4996125;28;20094;-83
2022/03/09 15:32:04;;;;;;;6.32;3.13;;;11.80;62.20;;;;;;5006539;28;20037;-83
2022/03/09 15:34:33;;;;;;;6.05;3.08;;;11.80;63.40;;;;;;4999546;28;20105;-84
2022/03/09 15:36:59;;;;;;;5.43;2.97;;;11.70;64.00;;;;;;4984082;28;20591;-83
2022/03/09 15:39:25;;;;;;;5.72;3.15;;;11.60;62.60;;;;;;4983638;28;20046;-83
2022/03/09 15:42:02;;;;;;;5.45;2.80;;;11.50;63.30;;;;;;5007165;28;20042;-86
2022/03/09 15:44:28;;;;;;;5.20;3.15;;;11.70;64.80;;;;;;5017397;28;20038;-82
2022/03/09 15:46:54;;;;;;;7.35;3.45;;;11.50;64.30;;;;;;5017116;28;20407;-84
2022/03/09 15:49:20;;;;;;;4.60;2.60;;;11.40;64.70;;;;;;5016514;28;20495;-84
2022/03/09 15:51:46;;;;;;;4.88;2.83;;;11.30;63.50;;;;;;4999030;28;20053;-83
2022/03/09 15:54:14;;;;;;;5.07;2.42;;;11.30;62.90;;;;;;4998884;28;20046;-83
2022/03/09 15:56:40;;;;;;;4.90;2.30;;;11.30;64.00;;;;;;4998560;28;20038;-83
2022/03/09 15:59:06;;;;;;;4.05;2.80;;;11.60;64.10;;;;;;4998629;28;20418;-83
2022/03/09 16:01:31;;;;;;;6.22;3.08;;;11.20;66.30;;;;;;4998950;28;20089;-84
2022/03/09 16:03:57;;;;;;;5.85;2.40;;;11.00;66.50;;;;;;4998175;28;20049;-83
2022/03/09 16:06:26;;;;;;;5.35;3.00;;;11.00;66.40;;;;;;4999042;28;20403;-84
2022/03/09 16:08:58;;;;;;;4.47;2.70;;;10.90;66.20;;;;;;5015915;28;20045;-84
2022/03/09 16:11:24;;;;;;;5.97;3.00;;;11.30;67.60;;;;;;5015107;28;20120;-83
2022/03/09 16:13:50;;;;;;;3.92;2.33;;;11.40;67.90;;;;;;4998399;28;20391;-83
2022/03/09 16:16:16;;;;;;;3.72;2.17;;;10.80;68.50;;;;;;5016117;28;20041;-83
2022/03/09 16:18:46;;;;;;;4.03;2.25;;;10.90;67.40;;;;;;4998240;28;20054;-83
2022/03/09 16:21:20;;;;;;;5.10;2.92;;;10.80;68.50;;;;;;4998025;28;20549;-83
2022/03/09 16:23:46;;;;;;;4.88;2.60;;;10.60;67.80;;;;;;5016124;28;20042;-83
2022/03/09 16:26:13;;;;;;;6.55;2.83;;;10.20;69.20;;;;;;4998401;28;20447;-83
2022/03/09 16:28:39;;;;;;;5.05;2.35;;;10.30;69.10;;;;;;4997589;28;20050;-83
2022/03/09 16:31:06;;;;;;;8.35;3.50;;;10.30;69.80;;;;;;5010798;28;20038;-83
2022/03/09 16:33:32;;;;;;;4.40;3.13;;;10.20;72.30;;;;;;4994201;28;20273;-83
2022/03/09 16:36:00;;;;;;;5.72;3.33;;;10.00;72.00;;;;;;4998180;28;20112;-82
2022/03/09 16:38:26;;;;;;;6.50;3.10;;;10.00;72.90;;;;;;4988950;28;20104;-83
2022/03/09 16:40:52;;;;;;;5.60;3.25;;;9.90;73.20;;;;;;5005341;28;20047;-83
2022/03/09 16:43:19;;;;;;;7.65;3.53;;;9.80;74.70;;;;;;5012752;28;20049;-82
2022/03/09 16:45:45;;;;;;;4.47;2.47;;;9.70;73.80;;;;;;5007214;28;20054;-82
2022/03/09 16:48:11;;;;;;;8.27;3.70;;;10.00;75.00;;;;;;5006513;28;20042;-83
2022/03/09 16:50:36;;;;;;;5.20;2.83;;;9.50;74.70;;;;;;4989973;28;20494;-83
2022/03/09 16:53:03;;;;;;;5.85;3.33;;;9.40;76.60;;;;;;4988796;28;20406;-83
2022/03/09 16:55:29;;;;;;;4.65;2.90;;;9.40;76.70;;;;;;4992615;28;20121;-83
2022/03/09 16:57:55;;;;;;;6.03;3.15;;;9.00;77.20;;;;;;4973189;28;20142;-84
2022/03/09 17:00:53;;;;;;;5.40;3.30;;;9.50;77.40;;;;;;4976416;28;20050;-86
2022/03/09 17:03:40;;;;;;;6.65;3.25;;;8.40;76.20;;;;;;4953496;29;20079;-85
2022/03/09 17:06:06;;;;;;;6.53;2.72;;;9.20;76.90;;;;;;4943583;28;20094;-84
2022/03/09 17:08:41;;;;;;;4.57;2.58;;;8.90;77.50;;;;;;4943728;28;20048;-85
2022/03/09 17:11:13;;;;;;;7.28;3.63;;;8.80;78.80;;;;;;4947252;28;20045;-83
2022/03/09 17:17:25;;;;;;;9.10;4.15;;;8.50;80.10;;;;;;4945868;29;20070;-83
2022/03/09 17:20:00;;;;;;;6.38;3.80;;;8.00;84.00;;;;;;4928992;29;20059;-82
2022/03/09 17:22:38;;;;;;;8.60;3.58;;;8.20;83.70;;;;;;4930701;29;20587;-84
2022/03/09 17:25:34;;;;;;;6.30;3.38;;;8.10;82.20;;;;;;4935997;29;20043;-85
2022/03/09 17:28:00;;;;;;;5.95;3.60;;;7.80;82.10;;;;;;4896567;29;20063;-82
2022/03/09 17:30:26;;;;;;;6.00;2.95;;;8.00;82.20;;;;;;4874219;29;20101;-82
2022/03/09 17:32:57;;;;;;;4.75;2.63;;;7.90;82.40;;;;;;4899545;29;20537;-82
2022/03/09 17:35:46;;;;;;;4.93;3.10;;;7.90;82.10;;;;;;4914617;29;20561;-82
2022/03/09 17:38:11;;;;;;;6.20;3.15;;;7.40;81.40;;;;;;4900801;29;20075;-82
2022/03/09 17:40:39;;;;;;;6.63;3.70;;;7.80;82.20;;;;;;4934297;29;20078;-83
2022/03/09 17:43:05;;;;;;;7.28;3.38;;;8.30;83.10;;;;;;4918203;29;20075;-82
2022/03/09 17:45:31;;;;;;;7.72;3.55;;;7.60;84.50;;;;;;4917947;29;20091;-81
2022/03/09 17:47:57;;;;;;;7.07;3.78;;;7.70;85.90;;;;;;4934220;29;20040;-82
2022/03/09 17:50:22;;;;;;;6.13;3.45;;;6.60;89.10;;;;;;4917170;29;20051;-81
2022/03/09 17:53:00;;;;;;;6.85;4.05;;;7.20;92.10;;;;;;4934586;29;20040;-81
2022/03/09 17:55:26;;;;;;;7.85;4.40;;;7.00;93.70;;;;;;4934169;29;20039;-84
2022/03/09 17:57:55;;;;;;;8.23;4.20;;;7.30;95.60;;;;;;4933101;29;20142;-83
2022/03/09 18:00:21;;;;;;;9.00;4.25;;;6.80;96.50;;;;;;4933332;29;20040;-82
2022/03/09 18:02:47;;;;;;;6.55;3.78;;;7.50;93.80;;;;;;4931561;29;20072;-81
2022/03/09 18:05:13;;;;;;;6.40;3.22;;;6.50;93.30;;;;;;4993246;28;20049;-81
2022/03/09 18:07:39;;;;;;;6.65;3.33;;;6.90;93.20;;;;;;4990232;28;20050;-82
2022/03/09 18:10:07;;;;;;;6.78;3.38;;;6.60;93.20;;;;;;5002890;28;20104;-84
2022/03/09 18:12:33;;;;;;;6.22;3.50;;;6.40;93.60;;;;;;4989283;28;20046;-86
2022/03/09 18:15:02;;;;;;;6.38;3.33;;;7.10;94.40;;;;;;4986115;28;20085;-88
2022/03/09 18:20:18;;;;;;;11.25;3.80;;;6.10;94.70;;;;;;4850105;23;20509;-87
2022/03/09 18:22:44;;;;;;;5.40;3.00;;;6.10;94.30;;;;;;4980911;28;20062;-86
2022/03/09 18:25:12;;;;;;;5.88;3.35;;;6.00;94.50;;;;;;4991936;28;20049;-86
2022/03/09 18:27:38;;;;;;;6.68;3.25;;;6.00;94.60;;;;;;4989157;28;20050;-86
2022/03/09 18:30:05;;;;;;;5.97;3.38;;;5.90;94.40;;;;;;5002066;23;20053;-85
2022/03/09 18:32:34;;;;;;;6.03;3.38;;;5.90;94.50;;;;;;4995578;28;20037;-87
2022/03/09 18:35:03;;;;;;;6.50;3.42;;;5.90;95.10;;;;;;4994835;28;20127;-85
2022/03/09 18:37:29;;;;;;;5.43;2.97;;;5.80;95.80;;;;;;4995425;28;20058;-87
2022/03/09 18:39:54;;;;;;;7.75;3.97;;;6.30;96.90;;;;;;4995108;28;20042;-85
2022/03/09 18:42:20;;;;;;;7.05;4.10;;;6.30;99.90;;;;;;4994681;28;20046;-88
2022/03/09 18:44:51;;;;;;;9.55;4.28;;;5.50;99.50;;;;;;5010887;28;20061;-85
2022/03/09 18:47:17;;;;;;;7.07;3.65;;;5.10;99.90;;;;;;4978899;28;20045;-87
2022/03/09 18:49:43;;;;;;;8.27;4.75;;;5.20;99.90;;;;;;4995354;28;20046;-86